This is the latest recevied weather packets stored in our database for station/object KK4WXG. If no packets are shown the sender has not sent any weather packets the latest 10 day(s).
| Time | Temp. | Humidity | Pressure | Rain* | Wind** | Luminosity | Snow |
|---|---|---|---|---|---|---|---|
| 1778024591 | 25° C | 31% | 1008.3 hPa | 0 mm | - | 22 W/m² | - |
| 1778024287 | 25° C | 30% | 1008.4 hPa | 0 mm | - | 24 W/m² | - |
| 1778023985 | 25° C | 32% | 1008.3 hPa | 0 mm | - | 26 W/m² | - |
| 1778023682 | 25.56° C | 30% | 1008.3 hPa | 0 mm | - | 33 W/m² | - |
| 1778023380 | 25.56° C | 31% | 1008.2 hPa | 0 mm | - | 48 W/m² | - |
| 1778023076 | 25.56° C | 31% | 1008.3 hPa | 0 mm | - | 66 W/m² | - |
| 1778022775 | 25.56° C | 30% | 1008.2 hPa | 0 mm | - | 69 W/m² | - |
| 1778022472 | 26.11° C | 30% | 1008 hPa | 0 mm | - | 89 W/m² | - |
| 1778022169 | 26.11° C | 29% | 1008.4 hPa | 0 mm | - | 93 W/m² | - |
| 1778021866 | 25.56° C | 31% | 1008.2 hPa | 0 mm | - | 91 W/m² | - |
| 1778021563 | 25.56° C | 32% | 1008.2 hPa | 0 mm | - | 66 W/m² | - |
| 1778021258 | 26.11° C | 32% | 1008.2 hPa | 0 mm | - | 114 W/m² | - |
| 1778020956 | 26.11° C | 32% | 1008.2 hPa | 0 mm | - | 113 W/m² | - |
| 1778020653 | 26.67° C | 30% | 1008.2 hPa | 0 mm | - | 169 W/m² | - |
| 1778020349 | 26.67° C | 32% | 1008.5 hPa | 0 mm | - | 193 W/m² | - |
| 1778020045 | 26.67° C | 30% | 1008.2 hPa | 0 mm | - | 208 W/m² | - |
| 1778019741 | 26.67° C | 29% | 1008.3 hPa | 0 mm | - | 264 W/m² | - |
| 1778019439 | 26.11° C | 31% | 1008.3 hPa | 0 mm | - | 148 W/m² | - |
| 1778019135 | 26.11° C | 29% | 1008.2 hPa | 0 mm | - | 121 W/m² | - |
| 1778018832 | 26.67° C | 29% | 1008.2 hPa | 0 mm | - | 129 W/m² | - |
| 1778018530 | 26.67° C | 29% | 1008.4 hPa | 0 mm | - | 147 W/m² | - |
| 1778018228 | 26.67° C | 31% | 1008.2 hPa | 0 mm | - | 203 W/m² | - |
| 1778017926 | 26.67° C | 30% | 1008.1 hPa | 0 mm | - | 207 W/m² | - |
| 1778017623 | 26.67° C | 30% | 1008.3 hPa | 0 mm | - | 232 W/m² | - |
| 1778017320 | 26.67° C | 30% | 1008.4 hPa | 0 mm | - | 232 W/m² | - |
* Rain latest hour (hover to see other rain measurements)
** Current wind speed in m/s (hover to see current wind gust speed)